• Join FlightAware (Why Join?)
  • Login
  • US Flag 
08:33PM EDT


 

Airport Tracker/Info


-or-


 

Live Flight TrackerFlight Track Log ✈ C-GGHZ ✈ 30-Oct-2013 ✈ KSGF - KLOT

Flight Track Log - Related Links

Times and Time Zones

All times are in EDT time to prevent confusion due to time zone crossing. See the C-GGHZ flight status page for this flight to view local times or setup timezone preferences in your user account.

Time Position Orientation Groundspeed Altitude Reporting Facility
EDT Latitude Longitude Course Direction KTS MPH feet Rate Location/Type
01:12PM 37.2889 -93.2667 38° Northeast 311 358 8,200  Level Kansas City Center
01:13PM 37.3731 -93.2325 18° North 313 360 11,300 2,760 Climbing Kansas City Center
01:14PM 37.4583 -93.1961 19° North 319 367 14,000 2,460 Climbing Kansas City Center
01:15PM 37.5644 -93.1433 22° Northeast 335 386 16,500 1,920 Climbing Kansas City Center
01:16PM 37.6450 -93.0656 37° Northeast 357 411 18,000 1,440 Climbing Kansas City Center
01:17PM 37.7043 -92.8747 38° Northeast  Level Estimated
01:17PM 37.7286 -92.9875 36° Northeast 367 422 19,500  Level Kansas City Center
01:18PM 37.8156 -92.9069 36° Northeast 379 436 20,800 1,260 Climbing Kansas City Center
01:19PM 37.9050 -92.8242 36° Northeast 392 451 22,200 1,320 Climbing Kansas City Center
01:20PM 38.0067 -92.7286 37° Northeast 407 468 23,600 1,260 Climbing Kansas City Center
01:21PM 38.0994 -92.6425 36° Northeast 412 474 24,900 1,200 Climbing Kansas City Center
01:22PM 38.1936 -92.5542 36° Northeast 419 482 26,200 1,200 Climbing Kansas City Center
01:23PM 38.2844 -92.4678 37° Northeast 423 487 27,500 1,380 Climbing Kansas City Center
01:24PM 38.4028 -92.3536 37° Northeast 436 502 29,100 1,320 Climbing Kansas City Center
01:26PM 38.5058 -92.2561 37° Northeast 450 518 30,300 1,020 Climbing Kansas City Center
01:27PM 38.6125 -92.1528 37° Northeast 468 539 31,300 960 Climbing Kansas City Center
01:28PM 38.7219 -92.0486 37° Northeast 483 556 32,300 960 Climbing Kansas City Center
01:29PM 38.8319 -91.9414 37° Northeast 491 565 33,300 960 Climbing Kansas City Center
01:30PM 38.9425 -91.8358 37° Northeast 492 566 34,300 960 Climbing Kansas City Center
01:31PM 39.0519 -91.7306 37° Northeast 490 564 35,400 960 Climbing Kansas City Center
01:32PM 39.1622 -91.6217 37° Northeast 492 566 36,400 720 Climbing Kansas City Center
01:33PM 39.2942 -91.4925 37° Northeast 494 568 37,000  Climbing Kansas City Center
01:34PM 39.4078 -91.3803 37° Northeast 502 578 36,500 -780 Descending Kansas City Center
01:35PM 39.5244 -91.2656 37° Northeast 515 593 35,500 -840 Descending Kansas City Center
01:36PM 39.6400 -91.1506 37° Northeast 520 598 34,800 -540 Descending Kansas City Center
01:37PM 39.7511 -91.0386 38° Northeast 514 592 34,400 -1,140 Descending Kansas City Center
01:38PM 39.8669 -90.9228 37° Northeast 507 583 32,500 -1,620 Descending Kansas City Center
01:39PM 39.9828 -90.8081 37° Northeast 517 595 31,100 -780 Descending Kansas City Center
01:40PM 40.0950 -90.6897 39° Northeast 519 597 31,000 -60 Descending Kansas City Center
01:41PM 40.2331 -90.5531 37° Northeast 518 596 31,000  Level Kansas City Center
01:42PM 40.3436 -90.4375 39° Northeast 511 588 31,000 -1,080 Level Kansas City Center
01:43PM 40.4308 -90.3494 38° Northeast 501 577 29,000 -2,580 Descending Chicago Center
01:44PM 40.5425 -90.2344 38° Northeast 477 549 26,200 -2,400 Descending Chicago Center
01:45PM 40.6186 -90.1056 52° Northeast 461 531 24,100 -2,280 Descending Chicago Center
01:46PM 40.6922 -89.9775 53° Northeast 441 507 21,600 -2,280 Descending Chicago Center
01:47PM 40.7572 -89.8500 56° Northeast 417 480 19,400 -1,920 Descending Chicago Center
01:48PM 40.8186 -89.7344 55° Northeast 388 447 17,700 -1,860 Descending Chicago Center
01:49PM 40.8869 -89.6053 55° Northeast 356 410 15,600 -1,920 Descending Chicago Center
01:50PM 40.9431 -89.4992 55° Northeast 343 395 13,700 -1,680 Descending Chicago Center
01:51PM 40.9975 -89.3950 55° Northeast 343 395 12,200 -1,260 Descending Chicago Center
01:52PM 41.0511 -89.2944 55° Northeast 336 387 11,200 -1,020 Descending Chicago Center
01:53PM 41.1025 -89.1942 56° Northeast 331 381 10,100 -1,080 Descending Chicago Center
01:54PM 41.1614 -89.0819 55° Northeast 324 373 9,000 -1,020 Descending Chicago Center
01:55PM 41.2100 -88.9850 56° Northeast 317 365 8,000 -1,020 Descending Chicago Center
01:56PM 41.2572 -88.8919 56° Northeast 308 354 7,000 -1,080 Descending Chicago Center
01:57PM 41.3061 -88.7956 56° Northeast 312 359 5,800 -1,020 Descending Chicago Center
01:58PM 41.3508 -88.7086 56° Northeast 292 336 5,000 -420 Descending Chicago Center
01:59PM 41.3933 -88.6236 56° Northeast 280 322 5,000  Level Chicago Center
02:01PM 41.4442 -88.5233 56° Northeast 274 315 5,000  Level Chicago Center
02:02PM 41.4836 -88.4444 56° Northeast 261 300 5,000 -540 Level Chicago Center
02:03PM 41.4861 -88.3622 88° East 236 272 3,900 -1,020 Descending Chicago Center
02:04PM 41.4794 -88.2867 97° East 217 250 3,000 -480 Descending Chicago Center
02:05PM 41.4756 -88.2214 95° East 199 229 3,000 -300 Level Chicago Center
02:06PM 41.4683 -88.1606 99° East 194 223 2,500 -360 Descending Chicago Center
02:07PM 41.5225 -88.1283 24° Northeast 182 209 2,300 -540 Descending Chicago Center
02:08PM 41.5656 -88.1122 16° North 168 193 1,400 -540 Descending Chicago Center
02:09PM 41.6044 -88.0994 14° North 156 180 1,300 720 Descending Chicago Center
02:10PM 41.6286 -88.1383 310° West 163 188 3,000 780 Climbing Chicago Center
02:11PM 41.6531 -88.2114 294° West 195 224 3,000 360 Level Chicago Center
02:12PM 41.6639 -88.2864 281° West 210 242 3,800 480 Climbing Chicago Center
02:13PM 41.5986 -88.2703 170° South 242 278 4,000 60 Climbing Chicago Center
02:14PM 41.5853 -88.1844 102° East 239 275 4,000  Level Chicago Center
02:15PM 41.5964 -88.1011 80° East 240 276 4,000  Level Chicago Center
02:16PM 41.6239 -88.0219 65° Northeast 237 273 4,000 -480 Level Chicago Center
02:17PM 41.6381 -87.9386 77° East 232 267 3,100 -540 Descending Chicago Center
02:18PM 41.6789 -87.8906 41° Northeast 209 241 3,000 -480 Descending Chicago Center
02:19PM 41.7236 -87.8292 46° Northeast 198 228 2,200 -780 Descending Chicago Center
02:20PM 41.7550 -87.7908 42° Northeast 175 201 1,400 -540 Descending Chicago Center
02:21PM 41.7814 -87.7592 42° Northeast 164 189 1,100 -300 Descending Chicago Center